createdAt,value
2018-07-19T00:00:38.140Z,25.55
2018-07-19T00:03:05.603Z,25.56
2018-07-19T00:05:33.044Z,25.56
2018-07-19T00:08:00.562Z,25.51
2018-07-19T00:10:28.019Z,25.49
2018-07-19T00:12:55.454Z,25.46
2018-07-19T00:15:22.872Z,25.45
2018-07-19T00:17:50.357Z,25.38
2018-07-19T00:20:17.785Z,25.28
2018-07-19T00:22:45.265Z,25.26
2018-07-19T00:25:12.734Z,25.36
2018-07-19T00:27:40.213Z,25.41
2018-07-19T00:30:07.682Z,25.40
2018-07-19T00:32:35.142Z,25.35
2018-07-19T00:35:02.599Z,25.32
2018-07-19T00:37:30.098Z,25.33
2018-07-19T00:39:57.614Z,25.31
2018-07-19T00:42:25.049Z,25.32
2018-07-19T00:44:52.564Z,25.29
2018-07-19T00:47:20.041Z,25.25
2018-07-19T00:49:47.488Z,25.23
2018-07-19T00:52:14.967Z,25.19
2018-07-19T00:54:42.413Z,25.17
2018-07-19T00:57:09.908Z,25.16
2018-07-19T00:59:37.365Z,25.15
2018-07-19T01:02:04.859Z,25.15
2018-07-19T01:04:32.368Z,25.16
2018-07-19T01:06:59.957Z,25.19
2018-07-19T01:09:28.116Z,25.17
2018-07-19T01:11:55.615Z,25.14
2018-07-19T01:14:23.136Z,25.16
2018-07-19T01:16:50.625Z,25.14
2018-07-19T01:19:18.116Z,25.08
2018-07-19T01:21:46.529Z,25.06
2018-07-19T01:24:13.985Z,25.00
2018-07-19T01:26:41.505Z,24.87
2018-07-19T01:29:09.039Z,24.85
2018-07-19T01:31:36.492Z,24.84
2018-07-19T01:34:04.005Z,24.76
2018-07-19T01:36:31.508Z,24.68
2018-07-19T01:38:58.947Z,24.62
2018-07-19T01:41:26.552Z,24.57
2018-07-19T01:43:54.006Z,24.58
2018-07-19T01:46:21.467Z,24.60
2018-07-19T01:48:48.942Z,24.61
2018-07-19T01:51:16.404Z,24.56
2018-07-19T01:53:43.868Z,24.55
2018-07-19T01:56:11.321Z,24.52
2018-07-19T01:58:38.761Z,24.53
2018-07-19T02:01:06.237Z,24.56
2018-07-19T02:03:33.713Z,24.56
2018-07-19T02:06:01.171Z,24.53
2018-07-19T02:08:28.658Z,24.51
2018-07-19T02:10:56.079Z,24.43
2018-07-19T02:13:23.496Z,24.39
2018-07-19T02:15:50.963Z,24.36
2018-07-19T02:18:18.399Z,24.33
2018-07-19T02:20:45.980Z,24.31
2018-07-19T02:23:13.478Z,24.33
2018-07-19T02:25:41.000Z,24.27
2018-07-19T02:28:08.463Z,24.17
2018-07-19T02:30:36.040Z,24.13
2018-07-19T02:33:03.495Z,24.11
2018-07-19T02:35:30.965Z,24.09
2018-07-19T02:37:58.514Z,24.09
2018-07-19T02:40:26.387Z,24.09
2018-07-19T02:42:53.962Z,24.09
2018-07-19T02:45:21.622Z,24.12
2018-07-19T02:47:49.083Z,24.09
2018-07-19T02:50:16.507Z,24.03
2018-07-19T02:52:44.426Z,24.02
2018-07-19T02:55:11.998Z,23.99
2018-07-19T02:57:40.024Z,23.99
2018-07-19T03:00:07.475Z,23.99
2018-07-19T03:02:34.922Z,23.89
2018-07-19T03:05:02.395Z,23.87
2018-07-19T03:07:29.873Z,23.82
2018-07-19T03:09:57.344Z,23.68
2018-07-19T03:12:24.843Z,23.50
2018-07-19T03:14:52.457Z,23.39
2018-07-19T03:17:19.913Z,23.48
2018-07-19T03:19:47.349Z,23.48
2018-07-19T03:22:14.840Z,23.51
2018-07-19T03:24:42.337Z,23.58
2018-07-19T03:27:09.793Z,23.57
2018-07-19T03:29:37.399Z,23.51
2018-07-19T03:32:04.882Z,23.49
2018-07-19T03:34:32.327Z,23.45
2018-07-19T03:36:59.769Z,23.49
2018-07-19T03:39:27.214Z,23.52
2018-07-19T03:41:54.661Z,23.51
2018-07-19T03:44:22.085Z,23.47
2018-07-19T03:46:49.542Z,23.38
2018-07-19T03:49:16.991Z,23.30
2018-07-19T03:51:44.473Z,23.27
2018-07-19T03:54:12.029Z,23.24
2018-07-19T03:56:39.525Z,23.30
2018-07-19T03:59:06.965Z,23.37
2018-07-19T04:01:34.376Z,23.39
2018-07-19T04:04:01.875Z,23.37
2018-07-19T04:06:29.315Z,23.33
2018-07-19T04:08:56.797Z,23.39
2018-07-19T04:11:24.221Z,23.41
2018-07-19T04:13:51.660Z,23.36
2018-07-19T04:16:19.128Z,23.33
2018-07-19T04:18:46.571Z,23.28
2018-07-19T04:21:14.050Z,23.29
2018-07-19T04:23:41.544Z,23.32
2018-07-19T04:26:09.035Z,23.25
2018-07-19T04:28:36.493Z,23.08
2018-07-19T04:31:04.010Z,22.96
2018-07-19T04:33:31.452Z,22.98
2018-07-19T04:35:58.890Z,23.03
2018-07-19T04:38:26.441Z,23.06
2018-07-19T04:40:54.001Z,23.08
2018-07-19T04:43:21.459Z,23.05
2018-07-19T04:45:48.957Z,23.11
2018-07-19T04:48:16.439Z,23.16
2018-07-19T04:50:44.160Z,23.27
2018-07-19T04:53:11.626Z,23.29
2018-07-19T04:55:39.123Z,23.34
2018-07-19T04:58:07.156Z,23.40
2018-07-19T05:00:34.603Z,23.53
2018-07-19T05:03:02.109Z,23.63
2018-07-19T05:05:29.579Z,23.77
2018-07-19T05:07:57.050Z,23.88
2018-07-19T05:10:24.534Z,23.93
2018-07-19T05:12:52.070Z,24.00
2018-07-19T05:15:19.594Z,23.98
2018-07-19T05:17:47.045Z,24.01
2018-07-19T05:20:14.507Z,24.09
2018-07-19T05:22:42.028Z,24.11
2018-07-19T05:25:09.699Z,24.16
2018-07-19T05:27:37.249Z,24.25
2018-07-19T05:30:04.868Z,24.39
2018-07-19T05:32:33.134Z,24.55
2018-07-19T05:35:00.580Z,24.65
2018-07-19T05:37:28.091Z,24.78
2018-07-19T05:39:55.610Z,24.86
2018-07-19T05:42:23.119Z,24.95
2018-07-19T05:44:50.624Z,25.03
2018-07-19T05:47:18.087Z,24.97
2018-07-19T05:49:45.579Z,25.11
2018-07-19T05:52:13.012Z,25.09
2018-07-19T05:54:40.473Z,24.97
2018-07-19T05:57:07.970Z,24.92
2018-07-19T05:59:35.476Z,24.86
2018-07-19T06:02:02.926Z,24.93
2018-07-19T06:04:30.401Z,24.96
2018-07-19T06:06:57.844Z,24.99
2018-07-19T06:09:25.948Z,24.96
2018-07-19T06:11:53.359Z,24.98
2018-07-19T06:14:20.868Z,24.91
2018-07-19T06:16:48.433Z,25.04
2018-07-19T06:19:15.916Z,25.14
2018-07-19T06:21:43.821Z,25.25
2018-07-19T06:24:11.294Z,25.22
2018-07-19T06:26:38.760Z,25.34
2018-07-19T06:29:07.020Z,25.41
2018-07-19T06:31:34.570Z,25.30
2018-07-19T06:34:02.059Z,25.37
2018-07-19T06:36:29.775Z,25.49
2018-07-19T06:38:57.246Z,25.55
2018-07-19T06:41:24.745Z,25.55
2018-07-19T06:43:52.190Z,25.72
2018-07-19T06:46:19.643Z,25.90
2018-07-19T06:48:47.138Z,25.87
2018-07-19T06:51:14.635Z,25.98
2018-07-19T06:53:42.051Z,26.00
2018-07-19T06:56:09.477Z,26.02
2018-07-19T06:58:36.962Z,26.12
2018-07-19T07:01:04.502Z,26.23
2018-07-19T07:03:32.173Z,26.44
2018-07-19T07:05:59.545Z,26.72
2018-07-19T07:08:26.994Z,27.22
2018-07-19T07:10:54.545Z,27.29
2018-07-19T07:13:22.308Z,27.24
2018-07-19T07:15:49.775Z,27.21
2018-07-19T07:18:17.266Z,27.02
2018-07-19T07:20:44.818Z,27.23
2018-07-19T07:23:12.251Z,27.36
2018-07-19T07:25:39.761Z,27.16
2018-07-19T07:28:07.453Z,27.53
2018-07-19T07:30:35.028Z,27.72
2018-07-19T07:33:02.508Z,27.48
2018-07-19T07:35:30.033Z,27.93
2018-07-19T07:37:58.496Z,28.36
2018-07-19T07:40:25.936Z,28.42
2018-07-19T07:42:53.398Z,28.42
2018-07-19T07:45:20.838Z,28.47
2018-07-19T07:47:48.318Z,28.46
2018-07-19T07:50:15.817Z,28.43
2018-07-19T07:52:43.340Z,28.82
2018-07-19T07:55:10.922Z,29.26
2018-07-19T07:57:38.327Z,29.64
2018-07-19T08:00:05.747Z,30.14
2018-07-19T08:02:33.355Z,30.36
2018-07-19T08:05:00.870Z,30.13
2018-07-19T08:07:28.371Z,30.23
2018-07-19T08:09:55.856Z,30.12
2018-07-19T08:12:23.382Z,30.51
2018-07-19T08:14:50.812Z,30.71
2018-07-19T08:17:18.313Z,30.60
2018-07-19T08:19:45.836Z,30.38
2018-07-19T08:22:13.296Z,30.55
2018-07-19T08:24:40.846Z,30.57
2018-07-19T08:27:08.464Z,30.75
2018-07-19T08:29:35.990Z,31.03
2018-07-19T08:32:03.463Z,30.96
2018-07-19T08:34:30.952Z,30.12
2018-07-19T08:36:58.459Z,29.84
2018-07-19T08:39:26.112Z,29.69
2018-07-19T08:41:54.162Z,29.62
2018-07-19T08:44:21.600Z,29.72
2018-07-19T08:46:49.109Z,29.88
2018-07-19T08:49:16.584Z,29.93
2018-07-19T08:51:44.182Z,29.97
2018-07-19T08:54:11.655Z,30.03
2018-07-19T08:56:39.200Z,29.66
2018-07-19T08:59:06.635Z,29.53
2018-07-19T09:01:34.109Z,29.45
2018-07-19T09:04:01.698Z,29.39
2018-07-19T09:06:29.186Z,29.67
2018-07-19T09:08:57.245Z,30.23
2018-07-19T09:11:24.808Z,30.31
2018-07-19T09:13:52.328Z,29.80
2018-07-19T09:16:19.847Z,29.96
2018-07-19T09:18:47.290Z,30.23
2018-07-19T09:21:14.799Z,30.37
2018-07-19T09:23:42.363Z,30.33
2018-07-19T09:26:09.802Z,30.54
2018-07-19T09:28:37.343Z,30.43
2018-07-19T09:31:04.863Z,29.86
2018-07-19T09:33:33.125Z,29.78
2018-07-19T09:36:00.599Z,30.02
2018-07-19T09:38:28.192Z,30.19
2018-07-19T09:40:55.691Z,30.06
2018-07-19T09:43:23.212Z,30.59
2018-07-19T09:45:50.695Z,30.49
2018-07-19T09:48:18.166Z,30.60
2018-07-19T09:50:45.725Z,30.75
2018-07-19T09:53:12.776Z,31.32
2018-07-19T09:55:40.158Z,31.47
2018-07-19T09:58:07.244Z,31.36
2018-07-19T10:00:34.879Z,31.43
2018-07-19T10:03:01.992Z,31.17
2018-07-19T10:05:29.104Z,30.99
2018-07-19T10:07:56.135Z,31.23
2018-07-19T10:10:23.123Z,31.66
2018-07-19T10:12:50.605Z,31.66
2018-07-19T10:15:17.697Z,31.57
2018-07-19T10:17:45.296Z,31.72
2018-07-19T10:20:12.896Z,32.00
2018-07-19T10:22:40.443Z,32.25
2018-07-19T10:25:07.971Z,32.46
2018-07-19T10:27:35.572Z,32.23
2018-07-19T10:30:03.926Z,32.19
2018-07-19T10:32:32.050Z,32.30
2018-07-19T10:34:59.403Z,32.37
2018-07-19T10:37:26.937Z,32.07
2018-07-19T10:39:54.389Z,31.75
2018-07-19T10:42:21.881Z,31.64
2018-07-19T10:44:49.467Z,31.84
2018-07-19T10:47:16.949Z,31.66
2018-07-19T10:49:44.482Z,31.76
2018-07-19T10:52:12.250Z,31.88
2018-07-19T10:54:39.847Z,31.86
2018-07-19T10:57:07.780Z,32.24
2018-07-19T10:59:35.434Z,32.35
2018-07-19T11:02:02.898Z,32.07
2018-07-19T11:04:31.115Z,31.93
2018-07-19T11:06:58.936Z,31.72
2018-07-19T11:09:26.778Z,31.70
2018-07-19T11:11:54.210Z,31.65
2018-07-19T11:14:22.096Z,31.64
2018-07-19T11:16:49.594Z,31.63
2018-07-19T11:19:17.178Z,31.87
2018-07-19T11:21:44.603Z,32.12
2018-07-19T11:24:12.117Z,32.36
2018-07-19T11:26:39.608Z,32.31
2018-07-19T11:29:07.079Z,32.15
2018-07-19T11:31:34.581Z,32.07
2018-07-19T11:34:02.099Z,32.06
2018-07-19T11:36:29.636Z,32.12
2018-07-19T11:38:57.210Z,32.18
2018-07-19T11:41:24.753Z,32.50
2018-07-19T11:43:52.310Z,32.99
2018-07-19T11:46:19.753Z,33.18
2018-07-19T11:48:47.217Z,33.28
2018-07-19T11:51:14.666Z,33.26
2018-07-19T11:53:41.694Z,33.02
2018-07-19T11:56:08.713Z,32.92
2018-07-19T11:58:35.772Z,33.10
2018-07-19T12:01:02.862Z,33.33
2018-07-19T12:03:30.367Z,33.20
2018-07-19T12:05:57.776Z,33.11
2018-07-19T12:08:25.307Z,33.26
2018-07-19T12:10:52.766Z,33.36
2018-07-19T12:13:19.840Z,33.29
2018-07-19T12:15:47.315Z,33.39
2018-07-19T12:18:14.304Z,33.22
2018-07-19T12:20:41.815Z,33.75
2018-07-19T12:23:10.239Z,33.78
2018-07-19T12:25:37.831Z,33.65
2018-07-19T12:28:05.291Z,33.62
2018-07-19T12:30:32.796Z,33.51
2018-07-19T12:33:00.210Z,33.40
2018-07-19T12:35:27.685Z,33.10
2018-07-19T12:37:55.184Z,32.95
2018-07-19T12:40:22.647Z,32.88
2018-07-19T12:42:50.170Z,33.02
2018-07-19T12:45:18.689Z,32.95
2018-07-19T12:47:46.183Z,32.92
2018-07-19T12:50:13.682Z,32.95
2018-07-19T12:52:41.131Z,33.09
2018-07-19T12:55:08.747Z,33.11
2018-07-19T12:57:36.260Z,33.12
2018-07-19T13:00:03.761Z,33.38
2018-07-19T13:02:31.180Z,33.30
2018-07-19T13:04:58.594Z,33.46
2018-07-19T13:07:26.025Z,33.82
2018-07-19T13:09:53.532Z,33.87
2018-07-19T13:12:21.365Z,33.77
2018-07-19T13:14:48.846Z,33.86
2018-07-19T13:17:16.321Z,33.92
2018-07-19T13:19:43.806Z,34.00
2018-07-19T13:22:11.263Z,33.58
2018-07-19T13:24:38.332Z,33.30
2018-07-19T13:27:06.018Z,33.53
2018-07-19T13:29:33.504Z,33.84
2018-07-19T13:32:01.036Z,34.01
2018-07-19T13:34:28.546Z,34.05
2018-07-19T13:36:56.165Z,34.17
2018-07-19T13:39:23.801Z,34.12
2018-07-19T13:41:51.227Z,34.02
2018-07-19T13:44:18.699Z,33.85
2018-07-19T13:46:46.151Z,33.86
2018-07-19T13:49:14.273Z,33.82
2018-07-19T13:51:41.883Z,33.83
2018-07-19T13:54:10.389Z,33.83
2018-07-19T13:56:37.948Z,33.96
2018-07-19T13:59:05.392Z,33.87
2018-07-19T14:01:32.847Z,33.68
2018-07-19T14:04:00.366Z,33.83
2018-07-19T14:06:27.857Z,33.73
2018-07-19T14:08:55.332Z,34.02
2018-07-19T14:11:22.936Z,33.96
2018-07-19T14:13:50.388Z,34.05
2018-07-19T14:16:17.852Z,34.16
2018-07-19T14:18:45.496Z,34.18
2018-07-19T14:21:12.985Z,34.09
2018-07-19T14:23:40.519Z,34.08
2018-07-19T14:26:08.020Z,34.21
2018-07-19T14:28:35.539Z,34.20
2018-07-19T14:31:02.971Z,34.33
2018-07-19T14:33:30.459Z,34.29
2018-07-19T14:35:58.078Z,34.32
2018-07-19T14:38:25.592Z,34.23
2018-07-19T14:40:54.097Z,34.16
2018-07-19T14:43:21.703Z,34.17
2018-07-19T14:45:49.199Z,33.87
2018-07-19T14:48:16.670Z,33.46
2018-07-19T14:50:44.118Z,33.46
2018-07-19T14:53:11.714Z,33.65
2018-07-19T14:55:39.132Z,33.68
2018-07-19T14:58:06.774Z,33.47
2018-07-19T15:00:34.387Z,33.33
2018-07-19T15:03:02.183Z,33.37
2018-07-19T15:05:29.652Z,33.61
2018-07-19T15:07:57.118Z,33.53
2018-07-19T15:10:24.569Z,33.56
2018-07-19T15:12:52.126Z,33.51
2018-07-19T15:15:19.673Z,33.50
2018-07-19T15:17:47.186Z,33.38
2018-07-19T15:20:14.809Z,33.62
2018-07-19T15:22:43.533Z,33.81
2018-07-19T15:25:11.099Z,33.78
2018-07-19T15:27:38.810Z,33.60
2018-07-19T15:30:06.247Z,33.56
2018-07-19T15:32:33.699Z,33.43
2018-07-19T15:35:01.126Z,33.44
2018-07-19T15:37:28.563Z,33.25
2018-07-19T15:39:56.113Z,33.24
2018-07-19T15:42:23.610Z,33.17
2018-07-19T15:44:51.111Z,32.99
2018-07-19T15:47:18.684Z,32.74
2018-07-19T15:49:46.199Z,32.66
2018-07-19T15:52:13.648Z,32.80
2018-07-19T15:54:41.120Z,33.13
2018-07-19T15:57:08.638Z,33.37
2018-07-19T15:59:36.105Z,33.21
2018-07-19T16:02:03.607Z,33.10
2018-07-19T16:04:31.074Z,32.94
2018-07-19T16:06:58.602Z,32.92
2018-07-19T16:09:26.073Z,32.85
2018-07-19T16:11:53.552Z,32.89
2018-07-19T16:14:21.390Z,32.92
2018-07-19T16:16:48.917Z,33.10
2018-07-19T16:19:16.394Z,33.07
2018-07-19T16:21:44.072Z,33.18
2018-07-19T16:24:11.565Z,33.31
2018-07-19T16:26:39.120Z,33.15
2018-07-19T16:29:06.687Z,33.11
2018-07-19T16:31:34.212Z,33.17
2018-07-19T16:34:01.920Z,33.19
2018-07-19T16:36:29.380Z,33.25
2018-07-19T16:38:56.892Z,33.10
2018-07-19T16:41:24.356Z,33.20
2018-07-19T16:43:51.912Z,33.08
2018-07-19T16:46:19.343Z,32.98
2018-07-19T16:48:46.840Z,33.03
2018-07-19T16:51:14.300Z,33.19
2018-07-19T16:53:41.880Z,33.27
2018-07-19T16:56:09.355Z,33.20
2018-07-19T16:58:36.758Z,32.99
2018-07-19T17:01:04.206Z,33.20
2018-07-19T17:03:31.661Z,33.29
2018-07-19T17:05:59.111Z,33.25
2018-07-19T17:08:26.665Z,33.18
2018-07-19T17:10:54.121Z,33.16
2018-07-19T17:13:21.662Z,33.06
2018-07-19T17:15:49.154Z,33.12
2018-07-19T17:18:16.673Z,33.17
2018-07-19T17:20:44.385Z,32.93
2018-07-19T17:23:11.807Z,32.78
2018-07-19T17:25:39.308Z,32.49
2018-07-19T17:28:06.888Z,32.22
2018-07-19T17:30:34.364Z,32.06
2018-07-19T17:33:01.827Z,31.91
2018-07-19T17:35:29.328Z,31.84
2018-07-19T17:37:56.774Z,31.62
2018-07-19T17:40:24.224Z,31.57
2018-07-19T17:42:51.813Z,31.51
2018-07-19T17:45:19.315Z,31.43
2018-07-19T17:47:46.763Z,31.38
2018-07-19T17:50:14.270Z,31.35
2018-07-19T17:52:41.690Z,31.36
2018-07-19T17:55:09.134Z,31.32
2018-07-19T17:57:36.574Z,31.10
2018-07-19T18:00:04.172Z,31.12
2018-07-19T18:02:31.678Z,31.01
2018-07-19T18:04:59.862Z,30.72
2018-07-19T18:07:27.347Z,30.57
2018-07-19T18:09:54.838Z,30.50
2018-07-19T18:12:22.450Z,30.41
2018-07-19T18:14:49.966Z,30.52
2018-07-19T18:17:17.476Z,30.66
2018-07-19T18:19:45.013Z,30.75
2018-07-19T18:22:12.553Z,30.84
2018-07-19T18:24:39.992Z,30.83
2018-07-19T18:27:07.426Z,30.78
2018-07-19T18:29:34.889Z,30.79
2018-07-19T18:32:02.414Z,30.74
2018-07-19T18:34:29.864Z,30.64
2018-07-19T18:36:57.425Z,30.41
2018-07-19T18:39:24.979Z,30.29
2018-07-19T18:41:52.415Z,30.32
2018-07-19T18:44:19.941Z,30.29
2018-07-19T18:46:48.118Z,30.02
2018-07-19T18:49:15.730Z,29.87
2018-07-19T18:51:43.485Z,29.78
2018-07-19T18:54:11.023Z,29.62
2018-07-19T18:56:38.457Z,29.53
2018-07-19T18:59:06.005Z,29.56
2018-07-19T19:01:33.684Z,29.57
2018-07-19T19:04:01.185Z,29.53
2018-07-19T19:06:28.932Z,29.55
2018-07-19T19:08:56.452Z,29.55
2018-07-19T19:11:23.933Z,29.49
2018-07-19T19:13:51.497Z,29.43
2018-07-19T19:16:18.956Z,29.38
2018-07-19T19:18:46.461Z,29.40
2018-07-19T19:21:14.037Z,29.26
2018-07-19T19:23:41.677Z,29.24
2018-07-19T19:26:09.189Z,29.22
2018-07-19T19:28:36.672Z,29.05
2018-07-19T19:31:04.123Z,28.84
2018-07-19T19:33:31.638Z,28.71
2018-07-19T19:35:59.087Z,28.63
2018-07-19T19:38:27.431Z,28.51
2018-07-19T19:40:54.929Z,28.50
2018-07-19T19:43:22.391Z,28.52
2018-07-19T19:45:49.861Z,28.50
2018-07-19T19:48:17.678Z,28.48
2018-07-19T19:50:45.248Z,28.55
2018-07-19T19:53:12.695Z,28.53
2018-07-19T19:55:40.170Z,28.58
2018-07-19T19:58:07.652Z,28.56
2018-07-19T20:00:35.452Z,28.40
2018-07-19T20:03:03.108Z,28.36
2018-07-19T20:05:30.632Z,28.32
2018-07-19T20:07:58.136Z,28.25
2018-07-19T20:10:25.602Z,28.19
2018-07-19T20:12:53.051Z,28.14
2018-07-19T20:15:20.773Z,28.07
2018-07-19T20:17:48.552Z,28.05
2018-07-19T20:20:15.996Z,28.01
2018-07-19T20:22:43.710Z,27.96
2018-07-19T20:25:11.424Z,27.93
2018-07-19T20:27:39.111Z,27.97
2018-07-19T20:30:06.571Z,27.94
2018-07-19T20:32:34.085Z,28.02
2018-07-19T20:35:01.498Z,28.07
2018-07-19T20:37:28.971Z,28.07
2018-07-19T20:39:56.510Z,28.03
2018-07-19T20:42:23.979Z,28.00
2018-07-19T20:44:51.566Z,27.97
2018-07-19T20:47:19.050Z,28.00
2018-07-19T20:49:46.515Z,28.00
2018-07-19T20:52:13.932Z,28.00
2018-07-19T20:54:41.374Z,28.02
2018-07-19T20:57:08.928Z,28.00
2018-07-19T20:59:36.570Z,27.94
2018-07-19T21:02:04.031Z,27.81
2018-07-19T21:04:31.618Z,27.70
2018-07-19T21:06:59.067Z,27.62
2018-07-19T21:09:26.529Z,27.56
2018-07-19T21:11:54.006Z,27.56
2018-07-19T21:14:21.480Z,27.54
2018-07-19T21:16:48.999Z,27.53
2018-07-19T21:19:16.456Z,27.49
2018-07-19T21:21:44.053Z,27.44
2018-07-19T21:24:11.587Z,27.49
2018-07-19T21:26:39.040Z,27.56
2018-07-19T21:29:06.668Z,27.55
2018-07-19T21:31:34.175Z,27.32
2018-07-19T21:34:01.669Z,27.13
2018-07-19T21:36:29.131Z,27.10
2018-07-19T21:38:56.611Z,27.07
2018-07-19T21:41:24.131Z,27.07
2018-07-19T21:43:51.585Z,27.01
2018-07-19T21:46:19.088Z,26.98
2018-07-19T21:48:46.535Z,26.97
2018-07-19T21:51:14.004Z,26.95
2018-07-19T21:53:41.429Z,26.93
2018-07-19T21:56:08.947Z,26.93
2018-07-19T21:58:36.329Z,26.94
2018-07-19T22:01:03.836Z,26.92
2018-07-19T22:03:31.262Z,26.88
2018-07-19T22:05:58.796Z,26.82
2018-07-19T22:08:26.312Z,26.84
2018-07-19T22:10:53.788Z,26.83
2018-07-19T22:13:21.204Z,26.82
2018-07-19T22:15:48.730Z,26.78
2018-07-19T22:18:16.245Z,26.73
2018-07-19T22:20:43.741Z,26.65
2018-07-19T22:23:13.165Z,26.61
2018-07-19T22:25:40.892Z,26.56
2018-07-19T22:28:08.407Z,26.48
2018-07-19T22:30:35.897Z,26.46
2018-07-19T22:33:03.356Z,26.42
2018-07-19T22:35:30.799Z,26.36
2018-07-19T22:37:58.215Z,26.26
2018-07-19T22:40:25.648Z,26.13
2018-07-19T22:42:53.163Z,26.12
2018-07-19T22:45:20.956Z,26.13
2018-07-19T22:47:48.441Z,26.10
2018-07-19T22:50:16.727Z,26.08
2018-07-19T22:52:44.171Z,26.06
2018-07-19T22:55:11.735Z,26.07
2018-07-19T22:57:39.198Z,26.04
2018-07-19T23:00:06.719Z,26.01
2018-07-19T23:02:34.137Z,26.02
2018-07-19T23:05:01.960Z,26.03
2018-07-19T23:07:29.384Z,26.05
2018-07-19T23:09:56.846Z,26.03
2018-07-19T23:12:24.446Z,25.98
2018-07-19T23:14:51.957Z,25.86
2018-07-19T23:17:19.390Z,25.80
2018-07-19T23:19:46.847Z,25.79
2018-07-19T23:22:14.297Z,25.82
2018-07-19T23:24:41.794Z,25.78
2018-07-19T23:27:09.285Z,25.74
2018-07-19T23:29:36.713Z,25.71
2018-07-19T23:32:04.183Z,25.71
2018-07-19T23:34:31.695Z,25.64
2018-07-19T23:36:59.156Z,25.61
2018-07-19T23:39:26.590Z,25.57
2018-07-19T23:41:54.105Z,25.61
2018-07-19T23:44:21.532Z,25.64
2018-07-19T23:46:48.995Z,25.61
2018-07-19T23:49:16.422Z,25.57
2018-07-19T23:51:43.867Z,25.50
2018-07-19T23:54:11.395Z,25.46
2018-07-19T23:56:38.818Z,25.41
2018-07-19T23:59:06.307Z,25.38
